Departure
Konotori Tajima Airport
Toyooka, JP
cloud Weather
- Wind
- 350° / 3 kt
- Visibility
- 6 SM
- Ceiling
- FEW 3,000 ft
- Temp / Dew
- 29°C / 22°C
- Altimeter
- 29.91 inHg
Obs: 2026-09-01T09:00:00.000Z
Raw METAR
METAR RJBT 010900Z 35003KT 9999 FEW030 29/22 Q1013
local_airport Airport
TJH · RJBT · Toyooka, JP
Departure
Toyooka, JP
Obs: 2026-09-01T09:00:00.000Z
METAR RJBT 010900Z 35003KT 9999 FEW030 29/22 Q1013
| Date | Flight | Aircraft | Route | Takeoff | Landing | Duration | Dep Δ |
|---|---|---|---|---|---|---|---|
| 2026-07-26 | JL2326 | 8405AA | TJH → ITM | Jul 26, 09:15 UTC | Jul 26, 09:30 UTC | 15m | - |
| 2026-07-25 | JL2326 | 841B22 | TJH → ITM | Jul 25, 09:30 UTC | Jul 25, 09:50 UTC | 20m | - |
| 2026-07-24 | JL2326 | 8413FA | TJH → ITM | Jul 24, 10:05 UTC | Jul 24, 10:25 UTC | 20m | - |
| 2026-07-23 | JL2326 | 841066 | TJH → ITM | Jul 23, 09:20 UTC | Jul 23, 09:35 UTC | 15m | - |
| 2026-07-21 | JL2326 | 845F72 | TJH → ITM | Jul 21, 09:05 UTC | Jul 21, 09:30 UTC | 25m | - |
| 2026-07-20 | JL2326 | 8413FA | TJH → ITM | Jul 20, 09:20 UTC | Jul 20, 09:45 UTC | 25m | - |
| 2026-07-19 | JL2326 | 840CD2 | TJH → ITM | Jul 19, 09:20 UTC | Jul 19, 09:35 UTC | 15m | - |
| 2026-07-18 | JL2326 | 841066 | TJH → ITM | Jul 18, 09:05 UTC | Jul 18, 09:25 UTC | 20m | - |
| 2026-07-17 | JL2326 | 845F72 | TJH → ITM | Jul 17, 09:10 UTC | Jul 17, 09:30 UTC | 20m | - |
| 2026-06-15 | JL2326 | 8413FA | TJH → ITM | Jun 15, 09:10 UTC | Jun 15, 09:25 UTC | 15m | - |
| 2026-06-13 | JL2326 | 845BDE | TJH → ITM | Jun 13, 09:05 UTC | Jun 13, 09:25 UTC | 20m | - |
| 2026-06-12 | JL2326 | 8413FA | TJH → ITM | Jun 12, 09:35 UTC | Jun 12, 09:55 UTC | 20m | - |
| 2026-06-12 | JL2326 | 8413FA | TJH → ITM | Jun 12, 02:20 UTC | Jun 12, 03:05 UTC | 45m | - |
| 2026-06-10 | JL2326 | 8405AA | TJH → ITM | Jun 10, 09:35 UTC | Jun 10, 09:55 UTC | 20m | - |
| 2026-06-09 | JL2326 | 840CD2 | TJH → ITM | Jun 9, 09:30 UTC | Jun 9, 09:50 UTC | 20m | - |
| 2026-06-08 | JL2326 | 841B22 | TJH → ITM | Jun 8, 09:20 UTC | Jun 8, 09:40 UTC | 20m | - |
| 2026-06-07 | JL2326 | 840CD2 | TJH → ITM | Jun 7, 09:30 UTC | Jun 7, 09:55 UTC | 25m | - |
| 2026-06-06 | JL2326 | 84093E | TJH → ITM | Jun 6, 09:09 UTC | Jun 6, 09:30 UTC | 20m | - |
| 2026-06-05 | JL2326 | 841B22 | TJH → ITM | Jun 5, 09:10 UTC | Jun 5, 09:25 UTC | 15m | - |
| 2026-06-04 | JL2326 | 84093E | TJH → ITM | Jun 4, 09:50 UTC | Jun 4, 10:15 UTC | 25m | - |
| 2026-06-03 | JL2326 | 8413FA | TJH → ITM | Jun 3, 09:25 UTC | Jun 3, 09:45 UTC | 20m | - |
| 2026-06-01 | JL2326 | 845F72 | TJH → ITM | Jun 1, 09:15 UTC | Jun 1, 09:35 UTC | 20m | - |
| 2026-05-31 | JL2326 | 8413FA | TJH → ITM | May 31, 09:15 UTC | May 31, 09:40 UTC | 25m | - |
| 2026-05-30 | JL2326 | 845F72 | TJH → ITM | May 30, 09:30 UTC | May 30, 09:50 UTC | 20m | - |
| 2026-05-29 | JL2326 | 845BDE | TJH → ITM | May 29, 09:15 UTC | May 29, 09:40 UTC | 25m | - |
| Date | Flight | Aircraft | Route | Takeoff | Landing | Duration | Arr Δ |
|---|---|---|---|---|---|---|---|
| 2026-07-26 | JL2325 | 8405AA | ITM → TJH | Jul 26, 08:05 UTC | Jul 26, 08:25 UTC | 20m | - |
| 2026-07-26 | JL2323 | 841B22 | ITM → TJH | Jul 26, 00:15 UTC | Jul 26, 00:30 UTC | 15m | - |
| 2026-07-25 | JL2325 | 841B22 | ITM → TJH | Jul 25, 08:20 UTC | Jul 25, 08:45 UTC | 25m | - |
| 2026-07-25 | JL2323 | 8413FA | ITM → TJH | Jul 25, 00:15 UTC | Jul 25, 00:30 UTC | 15m | - |
| 2026-07-24 | JL2325 | 8413FA | ITM → TJH | Jul 24, 09:05 UTC | Jul 24, 09:25 UTC | 20m | - |
| 2026-07-24 | JL2323 | 841066 | ITM → TJH | Jul 24, 00:05 UTC | Jul 24, 00:20 UTC | 15m | - |
| 2026-07-23 | JL2325 | 841066 | ITM → TJH | Jul 23, 08:10 UTC | Jul 23, 08:30 UTC | 20m | - |
| 2026-07-23 | JL2323 | 840CD2 | ITM → TJH | Jul 23, 00:15 UTC | Jul 23, 00:35 UTC | 20m | - |
| 2026-07-22 | JL2323 | 845F72 | ITM → TJH | Jul 22, 00:15 UTC | Jul 22, 00:30 UTC | 15m | - |
| 2026-07-21 | JL2325 | 845F72 | ITM → TJH | Jul 21, 08:10 UTC | Jul 21, 08:25 UTC | 15m | - |
| 2026-07-21 | JL2323 | 8413FA | ITM → TJH | Jul 21, 00:15 UTC | Jul 21, 00:30 UTC | 15m | - |
| 2026-07-20 | JL2323 | 840CD2 | ITM → TJH | Jul 20, 00:10 UTC | Jul 20, 00:25 UTC | 15m | - |
| 2026-07-19 | JL2323 | 841066 | ITM → TJH | Jul 19, 00:10 UTC | Jul 19, 00:25 UTC | 15m | - |
| 2026-07-18 | JL2323 | 845F72 | ITM → TJH | Jul 18, 00:19 UTC | Jul 18, 00:35 UTC | 15m | - |
| 2026-06-26 | JL2323 | 845BDE | ITM → TJH | Jun 26, 00:24 UTC | Jun 26, 00:39 UTC | 15m | - |
| 2026-06-25 | JL2323 | 84093E | ITM → TJH | Jun 25, 00:09 UTC | Jun 25, 00:24 UTC | 15m | - |
| 2026-06-24 | JL2323 | 8405AA | ITM → TJH | Jun 24, 01:09 UTC | Jun 24, 01:24 UTC | 15m | - |
| 2026-06-23 | JL2323 | 84093E | ITM → TJH | Jun 23, 00:15 UTC | Jun 23, 00:30 UTC | 15m | - |
| 2026-06-21 | JL2323 | 8413FA | ITM → TJH | Jun 21, 00:25 UTC | Jun 21, 00:45 UTC | 20m | - |
| 2026-06-20 | JL2323 | 8405AA | ITM → TJH | Jun 20, 00:09 UTC | Jun 20, 00:29 UTC | 20m | - |
| 2026-06-19 | JL2323 | 84093E | ITM → TJH | Jun 19, 00:14 UTC | Jun 19, 00:29 UTC | 15m | - |
| 2026-06-18 | JL2323 | 84093E | ITM → TJH | Jun 18, 00:10 UTC | Jun 18, 00:25 UTC | 15m | - |
| 2026-06-17 | JL2323 | 845BDE | ITM → TJH | Jun 17, 00:20 UTC | Jun 17, 00:35 UTC | 15m | - |
| 2026-06-16 | JL2323 | 8413FA | ITM → TJH | Jun 16, 00:05 UTC | Jun 16, 00:20 UTC | 15m | - |
| 2026-06-14 | JL2323 | 845BDE | ITM → TJH | Jun 14, 00:05 UTC | Jun 14, 00:20 UTC | 15m | - |